KRHI/RHI METAR and TAF weather

Enter ICAO airport designator
Station Type Date Time Source
KRHI METAR 2019/05/26 01:53 UTC NOAA

KRHI 260153Z AUTO 29007KT 10SM SCT055 17/06 A2992 RMK AO2 SLP129 T01670061 TSNO $


Station Type Date Time Source
KRHI Decoded METAR 2019/05/26 01:53 UTC NOAA

RHINELANDER-ONEIDA CO AIRPORT , WI, United States (KRHI) 45-38N 89-29W 485M
May 25, 2019 - 09:53 PM EDT / 2019.05.26 0153 UTC
Wind: from the WNW (290 degrees) at 8 MPH (7 KT):0
Visibility: 10 mile(s):0
Sky conditions: partly cloudy
Temperature: 62.1 F (16.7 C)
Dew Point: 43.0 F (6.1 C)
Relative Humidity: 49%
Pressure (altimeter): 29.92 in. Hg (1013 hPa)
ob: KRHI 260153Z AUTO 29007KT 10SM SCT055 17/06 A2992 RMK AO2 SLP129 T01670061 TSNO
cycle: 2

Station Type Date Time Source
KRHI TAF 2019/05/25 18:22 UTC NOAA

TAF KRHI 251720Z 2518/2618 25014G25KT P6SM SCT045
FM260000 28009G15KT P6SM SCT050
FM260300 29004KT P6SM SKC
FM261300 02004KT P6SM SKC
FM261600 09006KT P6SM SCT035

Example: see airport list